sensor_id;sensor_type;location;lat;lon;timestamp;P1;durP1;ratioP1;P2;durP2;ratioP2
15567;SDS011;7885;42.596;23.044;2023-03-12T00:00:47;8.00;;;4.70;;
15567;SDS011;7885;42.596;23.044;2023-03-12T00:03:14;7.43;;;3.90;;
15567;SDS011;7885;42.596;23.044;2023-03-12T00:05:41;7.50;;;5.07;;
15567;SDS011;7885;42.596;23.044;2023-03-12T00:08:08;7.63;;;4.67;;
15567;SDS011;7885;42.596;23.044;2023-03-12T00:10:37;11.60;;;4.87;;
15567;SDS011;7885;42.596;23.044;2023-03-12T00:13:04;10.73;;;5.43;;
15567;SDS011;7885;42.596;23.044;2023-03-12T00:15:34;10.40;;;5.23;;
15567;SDS011;7885;42.596;23.044;2023-03-12T00:18:01;8.63;;;5.90;;
15567;SDS011;7885;42.596;23.044;2023-03-12T00:20:28;5.60;;;4.93;;
15567;SDS011;7885;42.596;23.044;2023-03-12T00:22:55;6.17;;;5.33;;
15567;SDS011;7885;42.596;23.044;2023-03-12T00:25:21;6.90;;;5.20;;
15567;SDS011;7885;42.596;23.044;2023-03-12T00:27:49;7.67;;;5.17;;
15567;SDS011;7885;42.596;23.044;2023-03-12T00:30:16;8.20;;;5.97;;
15567;SDS011;7885;42.596;23.044;2023-03-12T00:32:43;8.60;;;4.60;;
15567;SDS011;7885;42.596;23.044;2023-03-12T00:35:10;5.63;;;4.80;;
15567;SDS011;7885;42.596;23.044;2023-03-12T00:37:36;5.63;;;4.20;;
15567;SDS011;7885;42.596;23.044;2023-03-12T00:40:04;5.37;;;4.40;;
15567;SDS011;7885;42.596;23.044;2023-03-12T00:42:33;8.33;;;4.97;;
15567;SDS011;7885;42.596;23.044;2023-03-12T00:45:01;8.80;;;5.50;;
15567;SDS011;7885;42.596;23.044;2023-03-12T00:47:28;6.43;;;4.87;;
15567;SDS011;7885;42.596;23.044;2023-03-12T00:49:54;5.83;;;4.10;;
15567;SDS011;7885;42.596;23.044;2023-03-12T00:52:21;7.03;;;4.53;;
15567;SDS011;7885;42.596;23.044;2023-03-12T00:54:48;4.47;;;4.00;;
15567;SDS011;7885;42.596;23.044;2023-03-12T00:57:15;7.13;;;4.07;;
15567;SDS011;7885;42.596;23.044;2023-03-12T00:59:41;6.97;;;4.23;;
15567;SDS011;7885;42.596;23.044;2023-03-12T01:02:09;5.33;;;4.83;;
15567;SDS011;7885;42.596;23.044;2023-03-12T01:04:36;5.30;;;4.80;;
15567;SDS011;7885;42.596;23.044;2023-03-12T01:07:03;6.40;;;4.60;;
15567;SDS011;7885;42.596;23.044;2023-03-12T01:12:52;7.80;;;3.70;;
15567;SDS011;7885;42.596;23.044;2023-03-12T01:15:18;4.33;;;3.80;;
15567;SDS011;7885;42.596;23.044;2023-03-12T01:17:47;4.37;;;3.97;;
15567;SDS011;7885;42.596;23.044;2023-03-12T01:20:13;6.13;;;4.53;;
15567;SDS011;7885;42.596;23.044;2023-03-12T01:22:40;6.67;;;4.50;;
15567;SDS011;7885;42.596;23.044;2023-03-12T01:25:08;13.33;;;7.70;;
15567;SDS011;7885;42.596;23.044;2023-03-12T01:27:35;11.23;;;7.00;;
15567;SDS011;7885;42.596;23.044;2023-03-12T01:30:02;8.07;;;6.07;;
15567;SDS011;7885;42.596;23.044;2023-03-12T01:32:30;7.10;;;5.27;;
15567;SDS011;7885;42.596;23.044;2023-03-12T01:34:58;3.60;;;3.27;;
15567;SDS011;7885;42.596;23.044;2023-03-12T01:37:25;4.20;;;3.80;;
15567;SDS011;7885;42.596;23.044;2023-03-12T01:39:52;6.77;;;5.50;;
15567;SDS011;7885;42.596;23.044;2023-03-12T01:42:19;11.57;;;8.03;;
15567;SDS011;7885;42.596;23.044;2023-03-12T01:44:50;5.90;;;4.47;;
15567;SDS011;7885;42.596;23.044;2023-03-12T01:47:18;5.43;;;4.93;;
15567;SDS011;7885;42.596;23.044;2023-03-12T01:49:45;8.93;;;8.17;;
15567;SDS011;7885;42.596;23.044;2023-03-12T01:52:15;9.30;;;8.30;;
15567;SDS011;7885;42.596;23.044;2023-03-12T01:54:46;6.70;;;6.00;;
15567;SDS011;7885;42.596;23.044;2023-03-12T01:57:19;7.27;;;5.87;;
15567;SDS011;7885;42.596;23.044;2023-03-12T01:59:49;8.23;;;5.90;;
15567;SDS011;7885;42.596;23.044;2023-03-12T02:02:18;7.93;;;6.13;;
15567;SDS011;7885;42.596;23.044;2023-03-12T02:04:51;6.67;;;5.00;;
15567;SDS011;7885;42.596;23.044;2023-03-12T02:07:25;10.67;;;5.77;;
15567;SDS011;7885;42.596;23.044;2023-03-12T02:09:51;8.93;;;6.63;;
15567;SDS011;7885;42.596;23.044;2023-03-12T02:12:18;10.23;;;6.07;;
15567;SDS011;7885;42.596;23.044;2023-03-12T02:14:45;11.20;;;6.90;;
15567;SDS011;7885;42.596;23.044;2023-03-12T02:17:12;4.80;;;4.07;;
15567;SDS011;7885;42.596;23.044;2023-03-12T02:19:40;5.63;;;3.70;;
15567;SDS011;7885;42.596;23.044;2023-03-12T02:22:14;5.57;;;3.73;;
15567;SDS011;7885;42.596;23.044;2023-03-12T02:24:44;6.80;;;3.80;;
15567;SDS011;7885;42.596;23.044;2023-03-12T02:27:16;4.47;;;3.63;;
15567;SDS011;7885;42.596;23.044;2023-03-12T02:29:44;10.87;;;7.40;;
15567;SDS011;7885;42.596;23.044;2023-03-12T02:32:14;12.30;;;8.60;;
15567;SDS011;7885;42.596;23.044;2023-03-12T02:34:45;12.87;;;8.37;;
15567;SDS011;7885;42.596;23.044;2023-03-12T02:37:12;7.40;;;6.40;;
15567;SDS011;7885;42.596;23.044;2023-03-12T02:39:39;9.10;;;6.40;;
15567;SDS011;7885;42.596;23.044;2023-03-12T02:42:07;9.77;;;7.00;;
15567;SDS011;7885;42.596;23.044;2023-03-12T02:44:36;10.27;;;7.67;;
15567;SDS011;7885;42.596;23.044;2023-03-12T02:47:03;8.93;;;7.37;;
15567;SDS011;7885;42.596;23.044;2023-03-12T02:49:31;9.40;;;7.57;;
15567;SDS011;7885;42.596;23.044;2023-03-12T02:51:58;10.93;;;7.17;;
15567;SDS011;7885;42.596;23.044;2023-03-12T02:54:26;9.93;;;5.97;;
15567;SDS011;7885;42.596;23.044;2023-03-12T02:56:53;7.07;;;5.60;;
15567;SDS011;7885;42.596;23.044;2023-03-12T02:59:21;7.83;;;5.73;;
15567;SDS011;7885;42.596;23.044;2023-03-12T03:01:52;7.43;;;6.53;;
15567;SDS011;7885;42.596;23.044;2023-03-12T03:04:19;7.80;;;6.73;;
15567;SDS011;7885;42.596;23.044;2023-03-12T03:06:46;5.37;;;4.37;;
15567;SDS011;7885;42.596;23.044;2023-03-12T03:09:13;6.77;;;5.40;;
15567;SDS011;7885;42.596;23.044;2023-03-12T03:18:24;8.33;;;6.67;;
15567;SDS011;7885;42.596;23.044;2023-03-12T03:20:54;7.10;;;6.20;;
15567;SDS011;7885;42.596;23.044;2023-03-12T03:23:21;9.50;;;6.63;;
15567;SDS011;7885;42.596;23.044;2023-03-12T03:25:49;9.53;;;7.20;;
15567;SDS011;7885;42.596;23.044;2023-03-12T03:28:17;9.63;;;8.53;;
15567;SDS011;7885;42.596;23.044;2023-03-12T03:30:43;9.27;;;7.77;;
15567;SDS011;7885;42.596;23.044;2023-03-12T03:33:10;8.70;;;6.03;;
15567;SDS011;7885;42.596;23.044;2023-03-12T03:35:39;11.73;;;6.63;;
15567;SDS011;7885;42.596;23.044;2023-03-12T03:38:07;7.67;;;6.83;;
15567;SDS011;7885;42.596;23.044;2023-03-12T03:40:33;7.80;;;7.07;;
15567;SDS011;7885;42.596;23.044;2023-03-12T03:43:00;8.83;;;7.50;;
15567;SDS011;7885;42.596;23.044;2023-03-12T03:45:27;6.67;;;5.97;;
15567;SDS011;7885;42.596;23.044;2023-03-12T03:47:54;9.50;;;5.97;;
15567;SDS011;7885;42.596;23.044;2023-03-12T03:50:20;7.03;;;5.33;;
15567;SDS011;7885;42.596;23.044;2023-03-12T03:52:49;4.70;;;3.90;;
15567;SDS011;7885;42.596;23.044;2023-03-12T03:55:15;6.07;;;4.50;;
15567;SDS011;7885;42.596;23.044;2023-03-12T03:57:42;6.90;;;4.57;;
15567;SDS011;7885;42.596;23.044;2023-03-12T04:00:10;7.57;;;4.97;;
15567;SDS011;7885;42.596;23.044;2023-03-12T04:02:37;5.47;;;4.60;;
15567;SDS011;7885;42.596;23.044;2023-03-12T04:05:05;6.73;;;4.80;;
15567;SDS011;7885;42.596;23.044;2023-03-12T04:07:32;6.63;;;4.77;;
15567;SDS011;7885;42.596;23.044;2023-03-12T04:10:00;6.37;;;4.90;;
15567;SDS011;7885;42.596;23.044;2023-03-12T04:12:27;6.13;;;4.70;;
15567;SDS011;7885;42.596;23.044;2023-03-12T04:14:54;7.43;;;5.10;;
15567;SDS011;7885;42.596;23.044;2023-03-12T04:17:21;5.93;;;4.93;;
15567;SDS011;7885;42.596;23.044;2023-03-12T04:19:48;7.73;;;6.00;;
15567;SDS011;7885;42.596;23.044;2023-03-12T04:22:15;6.13;;;4.73;;
15567;SDS011;7885;42.596;23.044;2023-03-12T04:24:41;5.27;;;4.37;;
15567;SDS011;7885;42.596;23.044;2023-03-12T04:27:10;5.83;;;4.40;;
15567;SDS011;7885;42.596;23.044;2023-03-12T04:29:36;4.43;;;3.87;;
15567;SDS011;7885;42.596;23.044;2023-03-12T04:32:05;7.90;;;5.47;;
15567;SDS011;7885;42.596;23.044;2023-03-12T04:34:32;10.63;;;6.13;;
15567;SDS011;7885;42.596;23.044;2023-03-12T04:36:59;8.37;;;5.50;;
15567;SDS011;7885;42.596;23.044;2023-03-12T04:39:26;6.10;;;5.37;;
15567;SDS011;7885;42.596;23.044;2023-03-12T04:41:53;6.20;;;5.47;;
15567;SDS011;7885;42.596;23.044;2023-03-12T04:44:21;8.90;;;6.67;;
15567;SDS011;7885;42.596;23.044;2023-03-12T04:46:48;7.50;;;5.57;;
15567;SDS011;7885;42.596;23.044;2023-03-12T04:49:14;5.33;;;4.43;;
15567;SDS011;7885;42.596;23.044;2023-03-12T04:51:41;10.60;;;5.13;;
15567;SDS011;7885;42.596;23.044;2023-03-12T04:54:08;5.17;;;4.43;;
15567;SDS011;7885;42.596;23.044;2023-03-12T04:56:35;8.97;;;5.87;;
15567;SDS011;7885;42.596;23.044;2023-03-12T04:59:01;10.63;;;5.57;;
15567;SDS011;7885;42.596;23.044;2023-03-12T05:01:31;7.13;;;5.37;;
15567;SDS011;7885;42.596;23.044;2023-03-12T05:03:59;8.80;;;4.73;;
15567;SDS011;7885;42.596;23.044;2023-03-12T05:06:26;5.83;;;4.90;;
15567;SDS011;7885;42.596;23.044;2023-03-12T05:08:53;5.27;;;4.10;;
15567;SDS011;7885;42.596;23.044;2023-03-12T05:11:20;7.67;;;5.67;;
15567;SDS011;7885;42.596;23.044;2023-03-12T05:13:48;6.33;;;5.37;;
15567;SDS011;7885;42.596;23.044;2023-03-12T05:16:15;7.33;;;5.87;;
15567;SDS011;7885;42.596;23.044;2023-03-12T05:18:44;6.83;;;5.70;;
15567;SDS011;7885;42.596;23.044;2023-03-12T05:21:11;4.27;;;3.87;;
15567;SDS011;7885;42.596;23.044;2023-03-12T05:23:40;3.30;;;3.00;;
15567;SDS011;7885;42.596;23.044;2023-03-12T05:26:07;6.70;;;4.27;;
15567;SDS011;7885;42.596;23.044;2023-03-12T05:28:44;3.00;;;2.53;;
15567;SDS011;7885;42.596;23.044;2023-03-12T05:31:11;3.03;;;2.73;;
15567;SDS011;7885;42.596;23.044;2023-03-12T05:33:38;7.90;;;5.57;;
15567;SDS011;7885;42.596;23.044;2023-03-12T05:36:07;5.00;;;4.50;;
15567;SDS011;7885;42.596;23.044;2023-03-12T05:38:35;4.50;;;2.90;;
15567;SDS011;7885;42.596;23.044;2023-03-12T05:41:02;4.20;;;2.87;;
15567;SDS011;7885;42.596;23.044;2023-03-12T05:43:30;2.90;;;2.70;;
15567;SDS011;7885;42.596;23.044;2023-03-12T05:45:58;5.53;;;4.33;;
15567;SDS011;7885;42.596;23.044;2023-03-12T05:48:25;9.30;;;5.50;;
15567;SDS011;7885;42.596;23.044;2023-03-12T05:50:52;7.37;;;4.70;;
15567;SDS011;7885;42.596;23.044;2023-03-12T05:53:20;6.00;;;4.83;;
15567;SDS011;7885;42.596;23.044;2023-03-12T05:55:47;8.93;;;6.60;;
15567;SDS011;7885;42.596;23.044;2023-03-12T05:58:14;8.70;;;4.80;;
15567;SDS011;7885;42.596;23.044;2023-03-12T06:00:41;6.77;;;5.07;;
15567;SDS011;7885;42.596;23.044;2023-03-12T06:03:08;7.10;;;5.87;;
15567;SDS011;7885;42.596;23.044;2023-03-12T06:05:36;9.03;;;6.37;;
15567;SDS011;7885;42.596;23.044;2023-03-12T06:08:04;8.17;;;5.83;;
15567;SDS011;7885;42.596;23.044;2023-03-12T06:10:32;6.77;;;4.80;;
15567;SDS011;7885;42.596;23.044;2023-03-12T06:12:59;6.40;;;4.50;;
15567;SDS011;7885;42.596;23.044;2023-03-12T06:15:26;10.90;;;7.40;;
15567;SDS011;7885;42.596;23.044;2023-03-12T06:17:52;8.17;;;5.73;;
15567;SDS011;7885;42.596;23.044;2023-03-12T06:20:19;7.83;;;5.47;;
15567;SDS011;7885;42.596;23.044;2023-03-12T06:22:46;11.70;;;8.60;;
15567;SDS011;7885;42.596;23.044;2023-03-12T06:25:13;5.63;;;3.87;;
15567;SDS011;7885;42.596;23.044;2023-03-12T06:27:41;6.83;;;5.03;;
15567;SDS011;7885;42.596;23.044;2023-03-12T06:30:08;4.80;;;3.47;;
15567;SDS011;7885;42.596;23.044;2023-03-12T06:32:36;5.03;;;3.40;;
15567;SDS011;7885;42.596;23.044;2023-03-12T06:35:03;5.70;;;5.07;;
15567;SDS011;7885;42.596;23.044;2023-03-12T06:37:30;6.03;;;4.97;;
15567;SDS011;7885;42.596;23.044;2023-03-12T06:39:57;3.47;;;2.03;;
15567;SDS011;7885;42.596;23.044;2023-03-12T06:42:24;4.90;;;2.43;;
15567;SDS011;7885;42.596;23.044;2023-03-12T06:44:53;2.30;;;2.10;;
15567;SDS011;7885;42.596;23.044;2023-03-12T06:47:19;5.10;;;3.57;;
15567;SDS011;7885;42.596;23.044;2023-03-12T06:53:14;6.23;;;4.47;;
15567;SDS011;7885;42.596;23.044;2023-03-12T06:55:41;4.57;;;3.87;;
15567;SDS011;7885;42.596;23.044;2023-03-12T06:58:08;6.03;;;4.67;;
15567;SDS011;7885;42.596;23.044;2023-03-12T07:00:36;2.07;;;1.80;;
15567;SDS011;7885;42.596;23.044;2023-03-12T07:03:03;6.63;;;4.37;;
15567;SDS011;7885;42.596;23.044;2023-03-12T07:05:30;4.57;;;2.47;;
15567;SDS011;7885;42.596;23.044;2023-03-12T07:07:57;2.77;;;2.10;;
15567;SDS011;7885;42.596;23.044;2023-03-12T07:10:24;3.33;;;2.50;;
15567;SDS011;7885;42.596;23.044;2023-03-12T07:12:52;4.40;;;3.90;;
15567;SDS011;7885;42.596;23.044;2023-03-12T07:15:19;8.70;;;5.73;;
15567;SDS011;7885;42.596;23.044;2023-03-12T07:17:47;4.33;;;2.90;;
15567;SDS011;7885;42.596;23.044;2023-03-12T07:20:14;3.07;;;2.30;;
15567;SDS011;7885;42.596;23.044;2023-03-12T07:22:40;2.13;;;1.90;;
15567;SDS011;7885;42.596;23.044;2023-03-12T07:25:07;2.87;;;2.10;;
15567;SDS011;7885;42.596;23.044;2023-03-12T07:27:34;1.70;;;1.50;;
15567;SDS011;7885;42.596;23.044;2023-03-12T07:30:01;2.20;;;2.00;;
15567;SDS011;7885;42.596;23.044;2023-03-12T07:32:28;2.90;;;2.60;;
15567;SDS011;7885;42.596;23.044;2023-03-12T07:34:58;3.17;;;2.87;;
15567;SDS011;7885;42.596;23.044;2023-03-12T07:37:25;3.53;;;3.23;;
15567;SDS011;7885;42.596;23.044;2023-03-12T07:39:52;4.63;;;3.37;;
15567;SDS011;7885;42.596;23.044;2023-03-12T07:42:20;2.63;;;2.40;;
15567;SDS011;7885;42.596;23.044;2023-03-12T07:44:47;2.50;;;2.30;;
15567;SDS011;7885;42.596;23.044;2023-03-12T07:47:14;4.57;;;3.20;;
15567;SDS011;7885;42.596;23.044;2023-03-12T07:49:41;3.10;;;2.80;;
15567;SDS011;7885;42.596;23.044;2023-03-12T07:52:09;2.70;;;2.50;;
15567;SDS011;7885;42.596;23.044;2023-03-12T07:54:36;4.00;;;3.60;;
15567;SDS011;7885;42.596;23.044;2023-03-12T07:57:03;6.40;;;5.67;;
15567;SDS011;7885;42.596;23.044;2023-03-12T07:59:30;6.97;;;4.77;;
15567;SDS011;7885;42.596;23.044;2023-03-12T08:01:57;5.40;;;4.90;;
15567;SDS011;7885;42.596;23.044;2023-03-12T08:04:24;3.93;;;3.53;;
15567;SDS011;7885;42.596;23.044;2023-03-12T08:06:51;5.00;;;4.50;;
15567;SDS011;7885;42.596;23.044;2023-03-12T08:09:19;3.80;;;3.33;;
15567;SDS011;7885;42.596;23.044;2023-03-12T08:11:45;3.30;;;3.00;;
15567;SDS011;7885;42.596;23.044;2023-03-12T08:14:12;5.57;;;5.03;;
15567;SDS011;7885;42.596;23.044;2023-03-12T08:16:39;4.43;;;4.03;;
15567;SDS011;7885;42.596;23.044;2023-03-12T08:19:06;5.13;;;4.63;;
15567;SDS011;7885;42.596;23.044;2023-03-12T08:21:32;5.03;;;4.38;;
15567;SDS011;7885;42.596;23.044;2023-03-12T08:23:59;3.05;;;2.85;;
15567;SDS011;7885;42.596;23.044;2023-03-12T08:26:28;6.38;;;5.07;;
15567;SDS011;7885;42.596;23.044;2023-03-12T08:28:54;6.15;;;4.95;;
15567;SDS011;7885;42.596;23.044;2023-03-12T08:31:21;3.05;;;2.75;;
15567;SDS011;7885;42.596;23.044;2023-03-12T08:37:10;5.30;;;4.90;;
15567;SDS011;7885;42.596;23.044;2023-03-12T08:39:36;6.85;;;5.30;;
15567;SDS011;7885;42.596;23.044;2023-03-12T08:42:05;6.38;;;5.80;;
15567;SDS011;7885;42.596;23.044;2023-03-12T08:44:32;5.35;;;4.85;;
15567;SDS011;7885;42.596;23.044;2023-03-12T08:46:58;6.90;;;5.85;;
15567;SDS011;7885;42.596;23.044;2023-03-12T08:49:25;4.30;;;3.90;;
15567;SDS011;7885;42.596;23.044;2023-03-12T08:51:52;6.28;;;5.68;;
15567;SDS011;7885;42.596;23.044;2023-03-12T08:54:19;6.50;;;4.83;;
15567;SDS011;7885;42.596;23.044;2023-03-12T08:56:48;4.30;;;3.08;;
15567;SDS011;7885;42.596;23.044;2023-03-12T08:59:17;2.72;;;2.30;;
15567;SDS011;7885;42.596;23.044;2023-03-12T09:01:44;3.45;;;2.97;;
15567;SDS011;7885;42.596;23.044;2023-03-12T09:04:12;5.07;;;2.40;;
15567;SDS011;7885;42.596;23.044;2023-03-12T09:06:38;3.93;;;3.50;;
15567;SDS011;7885;42.596;23.044;2023-03-12T09:09:05;4.40;;;4.00;;
15567;SDS011;7885;42.596;23.044;2023-03-12T09:11:33;4.97;;;4.10;;
15567;SDS011;7885;42.596;23.044;2023-03-12T09:14:01;4.83;;;4.40;;
15567;SDS011;7885;42.596;23.044;2023-03-12T09:16:29;3.43;;;3.13;;
15567;SDS011;7885;42.596;23.044;2023-03-12T09:18:56;4.60;;;4.20;;
15567;SDS011;7885;42.596;23.044;2023-03-12T09:21:23;3.67;;;3.27;;
15567;SDS011;7885;42.596;23.044;2023-03-12T09:23:50;4.43;;;3.90;;
15567;SDS011;7885;42.596;23.044;2023-03-12T09:26:16;2.90;;;2.63;;
15567;SDS011;7885;42.596;23.044;2023-03-12T09:28:43;4.40;;;2.97;;
15567;SDS011;7885;42.596;23.044;2023-03-12T09:31:10;3.37;;;3.07;;
15567;SDS011;7885;42.596;23.044;2023-03-12T09:33:38;4.27;;;3.90;;
15567;SDS011;7885;42.596;23.044;2023-03-12T09:36:05;3.30;;;3.00;;
15567;SDS011;7885;42.596;23.044;2023-03-12T09:38:32;4.20;;;3.80;;
15567;SDS011;7885;42.596;23.044;2023-03-12T09:41:00;4.20;;;3.70;;
15567;SDS011;7885;42.596;23.044;2023-03-12T09:43:31;8.50;;;5.90;;
15567;SDS011;7885;42.596;23.044;2023-03-12T09:46:03;2.57;;;2.37;;
15567;SDS011;7885;42.596;23.044;2023-03-12T09:48:36;9.03;;;5.67;;
15567;SDS011;7885;42.596;23.044;2023-03-12T09:51:07;6.53;;;2.70;;
15567;SDS011;7885;42.596;23.044;2023-03-12T09:53:39;2.67;;;2.33;;
15567;SDS011;7885;42.596;23.044;2023-03-12T09:56:12;3.27;;;2.53;;
15567;SDS011;7885;42.596;23.044;2023-03-12T09:58:41;3.97;;;3.67;;
15567;SDS011;7885;42.596;23.044;2023-03-12T10:01:17;4.20;;;3.47;;
15567;SDS011;7885;42.596;23.044;2023-03-12T10:04:02;5.13;;;4.00;;
15567;SDS011;7885;42.596;23.044;2023-03-12T10:10:15;2.47;;;2.27;;
15567;SDS011;7885;42.596;23.044;2023-03-12T10:13:00;3.37;;;2.90;;
15567;SDS011;7885;42.596;23.044;2023-03-12T10:15:39;4.03;;;3.23;;
15567;SDS011;7885;42.596;23.044;2023-03-12T10:18:20;5.10;;;3.90;;
15567;SDS011;7885;42.596;23.044;2023-03-12T10:21:02;5.03;;;3.80;;
15567;SDS011;7885;42.596;23.044;2023-03-12T10:26:33;3.30;;;2.33;;
15567;SDS011;7885;42.596;23.044;2023-03-12T10:29:20;5.07;;;4.17;;
15567;SDS011;7885;42.596;23.044;2023-03-12T10:31:51;2.63;;;2.43;;
15567;SDS011;7885;42.596;23.044;2023-03-12T10:34:24;4.97;;;4.47;;
15567;SDS011;7885;42.596;23.044;2023-03-12T10:36:59;3.67;;;2.87;;
15567;SDS011;7885;42.596;23.044;2023-03-12T10:39:31;3.97;;;3.60;;
15567;SDS011;7885;42.596;23.044;2023-03-12T10:41:58;2.83;;;2.63;;
15567;SDS011;7885;42.596;23.044;2023-03-12T10:44:26;5.87;;;3.30;;
15567;SDS011;7885;42.596;23.044;2023-03-12T10:46:58;3.00;;;2.70;;
15567;SDS011;7885;42.596;23.044;2023-03-12T10:49:32;2.90;;;2.67;;
15567;SDS011;7885;42.596;23.044;2023-03-12T10:52:03;5.23;;;4.73;;
15567;SDS011;7885;42.596;23.044;2023-03-12T10:54:33;4.80;;;3.90;;
15567;SDS011;7885;42.596;23.044;2023-03-12T10:57:02;2.43;;;2.23;;
15567;SDS011;7885;42.596;23.044;2023-03-12T10:59:30;4.10;;;3.70;;
15567;SDS011;7885;42.596;23.044;2023-03-12T11:01:59;4.53;;;4.13;;
15567;SDS011;7885;42.596;23.044;2023-03-12T11:04:26;2.80;;;2.60;;
15567;SDS011;7885;42.596;23.044;2023-03-12T11:10:03;4.27;;;3.87;;
15567;SDS011;7885;42.596;23.044;2023-03-12T11:12:38;2.47;;;2.27;;
15567;SDS011;7885;42.596;23.044;2023-03-12T11:15:19;4.70;;;3.90;;
15567;SDS011;7885;42.596;23.044;2023-03-12T11:17:48;3.80;;;3.40;;
15567;SDS011;7885;42.596;23.044;2023-03-12T11:20:22;3.60;;;2.30;;
15567;SDS011;7885;42.596;23.044;2023-03-12T11:22:52;2.03;;;1.90;;
15567;SDS011;7885;42.596;23.044;2023-03-12T11:25:20;2.83;;;2.20;;
15567;SDS011;7885;42.596;23.044;2023-03-12T11:27:50;3.27;;;2.97;;
15567;SDS011;7885;42.596;23.044;2023-03-12T11:30:21;1.70;;;1.60;;
15567;SDS011;7885;42.596;23.044;2023-03-12T11:32:52;2.90;;;1.90;;
15567;SDS011;7885;42.596;23.044;2023-03-12T11:35:21;1.60;;;1.50;;
15567;SDS011;7885;42.596;23.044;2023-03-12T11:38:02;1.70;;;1.60;;
15567;SDS011;7885;42.596;23.044;2023-03-12T11:40:46;3.43;;;2.63;;
15567;SDS011;7885;42.596;23.044;2023-03-12T11:43:27;2.23;;;1.93;;
15567;SDS011;7885;42.596;23.044;2023-03-12T11:46:08;4.90;;;3.50;;
15567;SDS011;7885;42.596;23.044;2023-03-12T11:48:48;2.80;;;1.87;;
15567;SDS011;7885;42.596;23.044;2023-03-12T11:51:24;6.27;;;4.43;;
15567;SDS011;7885;42.596;23.044;2023-03-12T11:57:34;3.57;;;3.07;;
15567;SDS011;7885;42.596;23.044;2023-03-12T12:00:10;2.53;;;2.30;;
15567;SDS011;7885;42.596;23.044;2023-03-12T12:02:58;4.73;;;4.30;;
15567;SDS011;7885;42.596;23.044;2023-03-12T12:05:39;3.43;;;2.93;;
15567;SDS011;7885;42.596;23.044;2023-03-12T12:08:20;2.90;;;2.70;;
15567;SDS011;7885;42.596;23.044;2023-03-12T12:10:59;2.50;;;2.30;;
15567;SDS011;7885;42.596;23.044;2023-03-12T12:13:34;3.17;;;2.23;;
15567;SDS011;7885;42.596;23.044;2023-03-12T12:16:14;3.17;;;2.70;;
15567;SDS011;7885;42.596;23.044;2023-03-12T12:18:50;3.20;;;2.90;;
15567;SDS011;7885;42.596;23.044;2023-03-12T12:28:28;2.80;;;2.07;;
15567;SDS011;7885;42.596;23.044;2023-03-12T12:31:11;3.50;;;3.20;;
15567;SDS011;7885;42.596;23.044;2023-03-12T12:33:53;5.67;;;4.60;;
15567;SDS011;7885;42.596;23.044;2023-03-12T12:36:32;4.67;;;3.10;;
15567;SDS011;7885;42.596;23.044;2023-03-12T12:39:02;2.87;;;2.33;;
15567;SDS011;7885;42.596;23.044;2023-03-12T12:41:33;2.23;;;2.03;;
15567;SDS011;7885;42.596;23.044;2023-03-12T12:44:05;3.77;;;3.47;;
15567;SDS011;7885;42.596;23.044;2023-03-12T12:46:38;3.57;;;3.10;;
15567;SDS011;7885;42.596;23.044;2023-03-12T12:49:09;3.67;;;3.00;;
15567;SDS011;7885;42.596;23.044;2023-03-12T12:51:39;2.03;;;1.83;;
15567;SDS011;7885;42.596;23.044;2023-03-12T12:54:09;3.23;;;2.60;;
15567;SDS011;7885;42.596;23.044;2023-03-12T12:56:49;5.30;;;4.80;;
15567;SDS011;7885;42.596;23.044;2023-03-12T12:59:29;5.93;;;5.30;;
15567;SDS011;7885;42.596;23.044;2023-03-12T13:02:01;4.83;;;4.33;;
15567;SDS011;7885;42.596;23.044;2023-03-12T13:04:31;1.63;;;1.53;;
15567;SDS011;7885;42.596;23.044;2023-03-12T13:07:01;2.83;;;2.63;;
15567;SDS011;7885;42.596;23.044;2023-03-12T13:09:36;3.97;;;3.57;;
15567;SDS011;7885;42.596;23.044;2023-03-12T13:12:13;3.90;;;3.50;;
15567;SDS011;7885;42.596;23.044;2023-03-12T13:14:45;3.73;;;3.30;;
15567;SDS011;7885;42.596;23.044;2023-03-12T13:17:21;3.90;;;3.20;;
15567;SDS011;7885;42.596;23.044;2023-03-12T13:19:58;4.00;;;3.60;;
15567;SDS011;7885;42.596;23.044;2023-03-12T13:22:40;4.33;;;3.57;;
15567;SDS011;7885;42.596;23.044;2023-03-12T13:25:23;2.90;;;2.50;;
15567;SDS011;7885;42.596;23.044;2023-03-12T13:27:56;1.70;;;1.60;;
15567;SDS011;7885;42.596;23.044;2023-03-12T13:33:13;3.20;;;2.83;;
15567;SDS011;7885;42.596;23.044;2023-03-12T13:35:42;3.60;;;3.17;;
15567;SDS011;7885;42.596;23.044;2023-03-12T13:38:33;4.43;;;3.23;;
15567;SDS011;7885;42.596;23.044;2023-03-12T13:41:01;4.17;;;3.70;;
15567;SDS011;7885;42.596;23.044;2023-03-12T13:43:41;5.83;;;4.87;;
15567;SDS011;7885;42.596;23.044;2023-03-12T13:46:25;4.53;;;4.13;;
15567;SDS011;7885;42.596;23.044;2023-03-12T13:48:56;4.27;;;3.87;;
15567;SDS011;7885;42.596;23.044;2023-03-12T13:51:28;3.67;;;3.17;;
15567;SDS011;7885;42.596;23.044;2023-03-12T13:53:57;3.23;;;2.90;;
15567;SDS011;7885;42.596;23.044;2023-03-12T13:56:27;4.93;;;3.30;;
15567;SDS011;7885;42.596;23.044;2023-03-12T13:58:56;4.00;;;2.90;;
15567;SDS011;7885;42.596;23.044;2023-03-12T14:01:28;10.87;;;3.10;;
15567;SDS011;7885;42.596;23.044;2023-03-12T14:03:57;3.67;;;3.33;;
15567;SDS011;7885;42.596;23.044;2023-03-12T14:06:27;3.40;;;3.10;;
15567;SDS011;7885;42.596;23.044;2023-03-12T14:09:00;2.80;;;2.40;;
15567;SDS011;7885;42.596;23.044;2023-03-12T14:11:36;7.30;;;4.93;;
15567;SDS011;7885;42.596;23.044;2023-03-12T14:14:21;8.87;;;4.20;;
15567;SDS011;7885;42.596;23.044;2023-03-12T14:17:14;3.83;;;3.20;;
15567;SDS011;7885;42.596;23.044;2023-03-12T14:19:44;6.67;;;4.10;;
15567;SDS011;7885;42.596;23.044;2023-03-12T14:22:13;5.67;;;4.80;;
15567;SDS011;7885;42.596;23.044;2023-03-12T14:24:47;3.87;;;3.57;;
15567;SDS011;7885;42.596;23.044;2023-03-12T14:27:17;4.53;;;4.03;;
15567;SDS011;7885;42.596;23.044;2023-03-12T14:29:47;5.37;;;4.20;;
15567;SDS011;7885;42.596;23.044;2023-03-12T14:32:20;3.97;;;3.60;;
15567;SDS011;7885;42.596;23.044;2023-03-12T14:34:50;4.97;;;4.30;;
15567;SDS011;7885;42.596;23.044;2023-03-12T14:37:21;5.90;;;4.10;;
15567;SDS011;7885;42.596;23.044;2023-03-12T14:39:50;5.13;;;3.77;;
15567;SDS011;7885;42.596;23.044;2023-03-12T14:42:21;10.60;;;6.73;;
15567;SDS011;7885;42.596;23.044;2023-03-12T14:44:53;9.83;;;6.80;;
15567;SDS011;7885;42.596;23.044;2023-03-12T14:47:27;9.57;;;7.03;;
15567;SDS011;7885;42.596;23.044;2023-03-12T14:49:55;13.60;;;8.07;;
15567;SDS011;7885;42.596;23.044;2023-03-12T14:52:23;6.20;;;3.90;;
15567;SDS011;7885;42.596;23.044;2023-03-12T14:54:54;4.10;;;3.70;;
15567;SDS011;7885;42.596;23.044;2023-03-12T14:57:22;5.47;;;4.50;;
15567;SDS011;7885;42.596;23.044;2023-03-12T14:59:53;4.30;;;3.13;;
15567;SDS011;7885;42.596;23.044;2023-03-12T15:02:22;3.03;;;2.60;;
15567;SDS011;7885;42.596;23.044;2023-03-12T15:04:52;4.30;;;3.17;;
15567;SDS011;7885;42.596;23.044;2023-03-12T15:07:22;3.13;;;2.47;;
15567;SDS011;7885;42.596;23.044;2023-03-12T15:09:52;4.20;;;3.10;;
15567;SDS011;7885;42.596;23.044;2023-03-12T15:12:20;6.03;;;3.37;;
15567;SDS011;7885;42.596;23.044;2023-03-12T15:14:49;4.30;;;3.60;;
15567;SDS011;7885;42.596;23.044;2023-03-12T15:17:19;13.83;;;8.43;;
15567;SDS011;7885;42.596;23.044;2023-03-12T15:19:49;5.53;;;3.93;;
15567;SDS011;7885;42.596;23.044;2023-03-12T15:22:20;5.53;;;4.30;;
15567;SDS011;7885;42.596;23.044;2023-03-12T15:24:51;6.70;;;4.00;;
15567;SDS011;7885;42.596;23.044;2023-03-12T15:27:29;4.50;;;3.43;;
15567;SDS011;7885;42.596;23.044;2023-03-12T15:29:59;5.20;;;3.97;;
15567;SDS011;7885;42.596;23.044;2023-03-12T15:32:26;8.60;;;5.80;;
15567;SDS011;7885;42.596;23.044;2023-03-12T15:34:55;8.67;;;6.90;;
15567;SDS011;7885;42.596;23.044;2023-03-12T15:37:24;3.33;;;2.83;;
15567;SDS011;7885;42.596;23.044;2023-03-12T15:39:57;4.90;;;2.80;;
15567;SDS011;7885;42.596;23.044;2023-03-12T15:42:26;5.23;;;3.93;;